sensor_id;sensor_type;location;lat;lon;timestamp;pressure;altitude;pressure_sealevel;temperature;humidity
19811;BME280;10065;49.632;8.346;2023-03-03T00:00:52;100914.28;;;7.81;40.05
19811;BME280;10065;49.632;8.346;2023-03-03T00:03:21;100907.81;;;7.74;40.30
19811;BME280;10065;49.632;8.346;2023-03-03T00:05:50;100916.19;;;7.68;40.54
19811;BME280;10065;49.632;8.346;2023-03-03T00:08:18;100915.81;;;7.61;40.89
19811;BME280;10065;49.632;8.346;2023-03-03T00:10:48;100916.66;;;7.62;40.97
19811;BME280;10065;49.632;8.346;2023-03-03T00:13:17;100923.00;;;7.59;41.02
19811;BME280;10065;49.632;8.346;2023-03-03T00:15:46;100922.16;;;7.59;41.03
19811;BME280;10065;49.632;8.346;2023-03-03T00:18:23;100921.31;;;7.58;40.95
19811;BME280;10065;49.632;8.346;2023-03-03T00:20:54;100920.25;;;7.61;41.03
19811;BME280;10065;49.632;8.346;2023-03-03T00:23:29;100928.28;;;7.59;41.09
19811;BME280;10065;49.632;8.346;2023-03-03T00:25:59;100926.03;;;7.54;41.39
19811;BME280;10065;49.632;8.346;2023-03-03T00:28:28;100929.63;;;7.53;41.42
19811;BME280;10065;49.632;8.346;2023-03-03T00:30:58;100919.28;;;7.50;41.50
19811;BME280;10065;49.632;8.346;2023-03-03T00:33:29;100921.91;;;7.50;41.68
19811;BME280;10065;49.632;8.346;2023-03-03T00:38:55;100924.69;;;7.49;41.88
19811;BME280;10065;49.632;8.346;2023-03-03T00:41:26;100925.88;;;7.45;41.97
19811;BME280;10065;49.632;8.346;2023-03-03T00:43:54;100935.59;;;7.44;42.08
19811;BME280;10065;49.632;8.346;2023-03-03T00:46:22;100923.84;;;7.37;42.27
19811;BME280;10065;49.632;8.346;2023-03-03T00:48:50;100927.66;;;7.33;42.47
19811;BME280;10065;49.632;8.346;2023-03-03T00:51:25;100930.41;;;7.32;42.64
19811;BME280;10065;49.632;8.346;2023-03-03T00:53:54;100926.81;;;7.33;42.54
19811;BME280;10065;49.632;8.346;2023-03-03T00:56:22;100926.22;;;7.29;42.82
19811;BME280;10065;49.632;8.346;2023-03-03T00:58:51;100939.41;;;7.29;42.96
19811;BME280;10065;49.632;8.346;2023-03-03T01:01:18;100946.47;;;7.29;42.99
19811;BME280;10065;49.632;8.346;2023-03-03T01:03:46;100944.00;;;7.14;43.32
19811;BME280;10065;49.632;8.346;2023-03-03T01:06:14;100943.41;;;7.11;43.74
19811;BME280;10065;49.632;8.346;2023-03-03T01:08:42;100940.88;;;7.09;43.89
19811;BME280;10065;49.632;8.346;2023-03-03T01:11:12;100944.13;;;7.13;43.88
19811;BME280;10065;49.632;8.346;2023-03-03T01:13:43;100947.84;;;7.10;43.84
19811;BME280;10065;49.632;8.346;2023-03-03T01:16:15;100945.16;;;6.99;44.23
19811;BME280;10065;49.632;8.346;2023-03-03T01:18:43;100950.22;;;7.02;44.35
19811;BME280;10065;49.632;8.346;2023-03-03T01:21:10;100945.16;;;6.99;44.61
19811;BME280;10065;49.632;8.346;2023-03-03T01:23:38;100945.06;;;7.01;44.51
19811;BME280;10065;49.632;8.346;2023-03-03T01:26:06;100948.97;;;6.95;44.99
19811;BME280;10065;49.632;8.346;2023-03-03T01:28:34;100945.22;;;6.87;44.78
19811;BME280;10065;49.632;8.346;2023-03-03T01:31:04;100945.09;;;6.88;44.89
19811;BME280;10065;49.632;8.346;2023-03-03T01:33:34;100946.69;;;6.91;44.89
19811;BME280;10065;49.632;8.346;2023-03-03T01:36:03;100940.56;;;6.90;45.03
19811;BME280;10065;49.632;8.346;2023-03-03T01:38:31;100937.44;;;6.85;44.92
19811;BME280;10065;49.632;8.346;2023-03-03T01:41:01;100939.34;;;6.83;44.88
19811;BME280;10065;49.632;8.346;2023-03-03T01:43:30;100940.91;;;6.86;45.33
19811;BME280;10065;49.632;8.346;2023-03-03T01:46:21;100939.94;;;6.87;45.19
19811;BME280;10065;49.632;8.346;2023-03-03T01:48:57;100938.28;;;6.86;45.30
19811;BME280;10065;49.632;8.346;2023-03-03T01:51:31;100934.28;;;6.80;45.55
19811;BME280;10065;49.632;8.346;2023-03-03T01:54:01;100934.75;;;6.74;45.63
19811;BME280;10065;49.632;8.346;2023-03-03T01:56:29;100932.09;;;6.74;45.63
19811;BME280;10065;49.632;8.346;2023-03-03T01:58:59;100936.44;;;6.75;45.83
19811;BME280;10065;49.632;8.346;2023-03-03T02:01:30;100933.91;;;6.73;45.76
19811;BME280;10065;49.632;8.346;2023-03-03T02:04:00;100928.00;;;6.70;45.95
19811;BME280;10065;49.632;8.346;2023-03-03T02:06:31;100937.31;;;6.63;46.33
19811;BME280;10065;49.632;8.346;2023-03-03T02:09:05;100939.00;;;6.64;46.59
19811;BME280;10065;49.632;8.346;2023-03-03T02:11:36;100931.09;;;6.64;46.54
19811;BME280;10065;49.632;8.346;2023-03-03T02:14:04;100928.47;;;6.64;46.61
19811;BME280;10065;49.632;8.346;2023-03-03T02:16:31;100933.72;;;6.64;46.80
19811;BME280;10065;49.632;8.346;2023-03-03T02:19:01;100930.72;;;6.45;47.47
19811;BME280;10065;49.632;8.346;2023-03-03T02:21:31;100930.25;;;6.39;47.56
19811;BME280;10065;49.632;8.346;2023-03-03T02:24:03;100934.03;;;6.35;47.73
19811;BME280;10065;49.632;8.346;2023-03-03T02:26:39;100930.06;;;6.30;48.01
19811;BME280;10065;49.632;8.346;2023-03-03T02:29:08;100935.72;;;6.36;47.99
19811;BME280;10065;49.632;8.346;2023-03-03T02:31:36;100931.94;;;6.40;47.94
19811;BME280;10065;49.632;8.346;2023-03-03T02:34:04;100936.09;;;6.43;48.04
19811;BME280;10065;49.632;8.346;2023-03-03T02:36:34;100931.94;;;6.40;48.05
19811;BME280;10065;49.632;8.346;2023-03-03T02:39:06;100934.66;;;6.39;48.29
19811;BME280;10065;49.632;8.346;2023-03-03T02:41:39;100940.53;;;6.42;48.39
19811;BME280;10065;49.632;8.346;2023-03-03T02:44:11;100932.13;;;6.37;48.64
19811;BME280;10065;49.632;8.346;2023-03-03T02:46:43;100931.41;;;6.35;49.09
19811;BME280;10065;49.632;8.346;2023-03-03T02:49:14;100923.72;;;6.32;48.92
19811;BME280;10065;49.632;8.346;2023-03-03T02:51:42;100929.00;;;6.32;49.13
19811;BME280;10065;49.632;8.346;2023-03-03T02:54:11;100927.41;;;6.30;49.06
19811;BME280;10065;49.632;8.346;2023-03-03T02:56:41;100939.94;;;6.26;49.57
19811;BME280;10065;49.632;8.346;2023-03-03T02:59:09;100932.28;;;6.23;49.63
19811;BME280;10065;49.632;8.346;2023-03-03T03:01:37;100933.25;;;6.22;49.76
19811;BME280;10065;49.632;8.346;2023-03-03T03:04:07;100937.88;;;6.19;49.57
19811;BME280;10065;49.632;8.346;2023-03-03T03:06:36;100937.25;;;6.15;49.76
19811;BME280;10065;49.632;8.346;2023-03-03T03:09:04;100933.78;;;6.15;49.77
19811;BME280;10065;49.632;8.346;2023-03-03T03:11:32;100925.44;;;6.08;50.04
19811;BME280;10065;49.632;8.346;2023-03-03T03:14:04;100919.81;;;5.89;50.45
19811;BME280;10065;49.632;8.346;2023-03-03T03:16:32;100929.38;;;5.90;50.52
19811;BME280;10065;49.632;8.346;2023-03-03T03:19:01;100936.63;;;5.99;50.23
19811;BME280;10065;49.632;8.346;2023-03-03T03:21:29;100936.44;;;6.02;50.42
19811;BME280;10065;49.632;8.346;2023-03-03T03:23:57;100939.91;;;6.02;50.32
19811;BME280;10065;49.632;8.346;2023-03-03T03:26:25;100944.31;;;6.02;50.39
19811;BME280;10065;49.632;8.346;2023-03-03T03:28:53;100946.00;;;6.03;50.17
19811;BME280;10065;49.632;8.346;2023-03-03T03:31:22;100938.75;;;6.07;50.25
19811;BME280;10065;49.632;8.346;2023-03-03T03:33:50;100939.56;;;6.07;50.44
19811;BME280;10065;49.632;8.346;2023-03-03T03:36:18;100940.00;;;6.01;50.59
19811;BME280;10065;49.632;8.346;2023-03-03T03:38:46;100941.91;;;5.86;51.05
19811;BME280;10065;49.632;8.346;2023-03-03T03:41:14;100932.84;;;5.90;51.02
19811;BME280;10065;49.632;8.346;2023-03-03T03:43:41;100930.72;;;5.83;51.17
19811;BME280;10065;49.632;8.346;2023-03-03T03:46:09;100936.84;;;5.83;51.34
19811;BME280;10065;49.632;8.346;2023-03-03T03:48:38;100940.19;;;5.85;51.41
19811;BME280;10065;49.632;8.346;2023-03-03T03:51:06;100941.25;;;5.83;51.47
19811;BME280;10065;49.632;8.346;2023-03-03T03:53:34;100938.63;;;5.83;51.72
19811;BME280;10065;49.632;8.346;2023-03-03T03:56:01;100939.38;;;5.85;51.40
19811;BME280;10065;49.632;8.346;2023-03-03T03:58:29;100945.78;;;5.81;51.55
19811;BME280;10065;49.632;8.346;2023-03-03T04:01:01;100944.31;;;5.77;51.84
19811;BME280;10065;49.632;8.346;2023-03-03T04:03:29;100936.41;;;5.77;52.09
19811;BME280;10065;49.632;8.346;2023-03-03T04:05:58;100939.06;;;5.77;51.97
19811;BME280;10065;49.632;8.346;2023-03-03T04:08:26;100935.56;;;5.76;52.18
19811;BME280;10065;49.632;8.346;2023-03-03T04:10:53;100935.16;;;5.70;52.37
19811;BME280;10065;49.632;8.346;2023-03-03T04:13:21;100936.84;;;5.71;52.69
19811;BME280;10065;49.632;8.346;2023-03-03T04:15:49;100949.16;;;5.70;52.79
19811;BME280;10065;49.632;8.346;2023-03-03T04:18:17;100955.28;;;5.71;52.93
19811;BME280;10065;49.632;8.346;2023-03-03T04:20:44;100952.63;;;5.71;52.79
19811;BME280;10065;49.632;8.346;2023-03-03T04:23:13;100949.25;;;5.68;52.81
19811;BME280;10065;49.632;8.346;2023-03-03T04:25:41;100950.41;;;5.64;53.00
19811;BME280;10065;49.632;8.346;2023-03-03T04:28:09;100949.56;;;5.64;53.21
19811;BME280;10065;49.632;8.346;2023-03-03T04:30:36;100948.00;;;5.61;53.34
19811;BME280;10065;49.632;8.346;2023-03-03T04:33:04;100953.28;;;5.61;53.42
19811;BME280;10065;49.632;8.346;2023-03-03T04:35:32;100952.63;;;5.58;53.69
19811;BME280;10065;49.632;8.346;2023-03-03T04:38:00;100952.63;;;5.58;53.83
19811;BME280;10065;49.632;8.346;2023-03-03T04:40:29;100948.63;;;5.52;54.01
19811;BME280;10065;49.632;8.346;2023-03-03T04:42:56;100953.91;;;5.52;54.18
19811;BME280;10065;49.632;8.346;2023-03-03T04:45:24;100961.25;;;5.47;54.41
19811;BME280;10065;49.632;8.346;2023-03-03T04:47:52;100962.09;;;5.48;54.47
19811;BME280;10065;49.632;8.346;2023-03-03T04:50:20;100960.28;;;5.48;54.47
19811;BME280;10065;49.632;8.346;2023-03-03T04:52:47;100959.34;;;5.49;54.59
19811;BME280;10065;49.632;8.346;2023-03-03T04:55:15;100969.88;;;5.49;54.95
19811;BME280;10065;49.632;8.346;2023-03-03T04:57:44;100964.63;;;5.49;54.97
19811;BME280;10065;49.632;8.346;2023-03-03T05:00:13;100965.47;;;5.50;55.18
19811;BME280;10065;49.632;8.346;2023-03-03T05:02:41;100977.03;;;5.47;55.30
19811;BME280;10065;49.632;8.346;2023-03-03T05:05:09;100985.00;;;5.46;55.49
19811;BME280;10065;49.632;8.346;2023-03-03T05:07:37;100985.84;;;5.46;55.45
19811;BME280;10065;49.632;8.346;2023-03-03T05:10:05;100986.94;;;5.44;55.97
19811;BME280;10065;49.632;8.346;2023-03-03T05:12:33;100992.81;;;5.47;55.84
19811;BME280;10065;49.632;8.346;2023-03-03T05:15:03;100981.56;;;5.45;55.92
19811;BME280;10065;49.632;8.346;2023-03-03T05:17:32;100987.16;;;5.53;55.76
19811;BME280;10065;49.632;8.346;2023-03-03T05:19:59;100992.59;;;5.50;56.00
19811;BME280;10065;49.632;8.346;2023-03-03T05:22:27;100995.34;;;5.49;56.20
19811;BME280;10065;49.632;8.346;2023-03-03T05:24:55;100999.66;;;5.50;56.20
19811;BME280;10065;49.632;8.346;2023-03-03T05:27:23;100996.69;;;5.54;56.05
19811;BME280;10065;49.632;8.346;2023-03-03T05:29:50;100997.13;;;5.48;56.38
19811;BME280;10065;49.632;8.346;2023-03-03T05:32:19;101001.91;;;5.29;56.98
19811;BME280;10065;49.632;8.346;2023-03-03T05:34:47;101005.47;;;5.28;57.17
19811;BME280;10065;49.632;8.346;2023-03-03T05:37:15;101002.84;;;5.28;57.41
19811;BME280;10065;49.632;8.346;2023-03-03T05:39:42;100999.50;;;5.26;57.51
19811;BME280;10065;49.632;8.346;2023-03-03T05:42:11;100994.78;;;5.31;57.23
19811;BME280;10065;49.632;8.346;2023-03-03T05:44:39;100994.59;;;5.34;57.27
19811;BME280;10065;49.632;8.346;2023-03-03T05:47:07;100999.53;;;5.39;57.15
19811;BME280;10065;49.632;8.346;2023-03-03T05:49:36;101005.63;;;5.39;57.14
19811;BME280;10065;49.632;8.346;2023-03-03T05:52:04;101002.25;;;5.37;57.25
19811;BME280;10065;49.632;8.346;2023-03-03T05:54:32;101003.94;;;5.38;57.11
19811;BME280;10065;49.632;8.346;2023-03-03T05:57:00;100997.84;;;5.38;57.37
19811;BME280;10065;49.632;8.346;2023-03-03T05:59:28;101010.47;;;5.33;57.42
19811;BME280;10065;49.632;8.346;2023-03-03T06:01:56;101000.03;;;5.31;57.65
19811;BME280;10065;49.632;8.346;2023-03-03T06:04:23;101004.44;;;5.30;57.63
19811;BME280;10065;49.632;8.346;2023-03-03T06:06:52;101010.97;;;5.38;57.42
19811;BME280;10065;49.632;8.346;2023-03-03T06:09:20;101004.16;;;5.35;57.53
19811;BME280;10065;49.632;8.346;2023-03-03T06:11:48;101007.72;;;5.34;57.62
19811;BME280;10065;49.632;8.346;2023-03-03T06:14:18;101012.06;;;5.35;57.49
19811;BME280;10065;49.632;8.346;2023-03-03T06:16:49;101008.25;;;5.39;57.35
19811;BME280;10065;49.632;8.346;2023-03-03T06:19:17;101011.91;;;5.37;57.65
19811;BME280;10065;49.632;8.346;2023-03-03T06:21:45;101019.94;;;5.35;57.71
19811;BME280;10065;49.632;8.346;2023-03-03T06:24:14;101033.09;;;5.35;57.67
19811;BME280;10065;49.632;8.346;2023-03-03T06:26:42;101038.84;;;5.27;57.82
19811;BME280;10065;49.632;8.346;2023-03-03T06:29:09;101053.22;;;5.22;58.25
19811;BME280;10065;49.632;8.346;2023-03-03T06:31:40;101048.91;;;5.21;58.26
19811;BME280;10065;49.632;8.346;2023-03-03T06:34:08;101051.16;;;5.27;58.27
19811;BME280;10065;49.632;8.346;2023-03-03T06:36:36;101048.13;;;5.33;57.87
19811;BME280;10065;49.632;8.346;2023-03-03T06:39:04;101055.41;;;5.42;57.62
19811;BME280;10065;49.632;8.346;2023-03-03T06:41:33;101062.41;;;5.29;57.94
19811;BME280;10065;49.632;8.346;2023-03-03T06:44:01;101059.25;;;5.24;58.15
19811;BME280;10065;49.632;8.346;2023-03-03T06:46:29;101064.69;;;5.21;58.23
19811;BME280;10065;49.632;8.346;2023-03-03T06:48:56;101073.56;;;5.33;58.00
19811;BME280;10065;49.632;8.346;2023-03-03T06:51:28;101063.72;;;5.36;58.00
19811;BME280;10065;49.632;8.346;2023-03-03T06:53:59;101066.44;;;5.35;57.99
19811;BME280;10065;49.632;8.346;2023-03-03T06:56:28;101069.69;;;5.38;58.24
19811;BME280;10065;49.632;8.346;2023-03-03T06:58:59;101071.72;;;5.47;57.67
19811;BME280;10065;49.632;8.346;2023-03-03T07:01:31;101076.97;;;5.47;58.04
19811;BME280;10065;49.632;8.346;2023-03-03T07:04:00;101083.09;;;5.48;58.02
19811;BME280;10065;49.632;8.346;2023-03-03T07:06:28;101083.94;;;5.48;58.06
19811;BME280;10065;49.632;8.346;2023-03-03T07:08:56;101081.00;;;5.53;58.27
19811;BME280;10065;49.632;8.346;2023-03-03T07:11:24;101089.19;;;5.48;58.78
19811;BME280;10065;49.632;8.346;2023-03-03T07:13:53;101087.97;;;5.54;58.61
19811;BME280;10065;49.632;8.346;2023-03-03T07:16:25;101080.59;;;5.59;58.46
19811;BME280;10065;49.632;8.346;2023-03-03T07:18:54;101091.34;;;5.68;58.53
19811;BME280;10065;49.632;8.346;2023-03-03T07:21:25;101103.66;;;5.68;58.50
19811;BME280;10065;49.632;8.346;2023-03-03T07:23:57;101106.31;;;5.68;58.55
19811;BME280;10065;49.632;8.346;2023-03-03T07:26:28;101107.16;;;5.68;58.63
19811;BME280;10065;49.632;8.346;2023-03-03T07:29:00;101112.31;;;5.70;58.84
19811;BME280;10065;49.632;8.346;2023-03-03T07:31:33;101108.00;;;5.82;58.43
19811;BME280;10065;49.632;8.346;2023-03-03T07:34:12;101111.75;;;5.92;58.50
19811;BME280;10065;49.632;8.346;2023-03-03T07:36:41;101117.75;;;5.94;58.31
19811;BME280;10065;49.632;8.346;2023-03-03T07:39:20;101110.50;;;5.97;58.26
19811;BME280;10065;49.632;8.346;2023-03-03T07:41:51;101121.34;;;5.93;58.46
19811;BME280;10065;49.632;8.346;2023-03-03T07:44:30;101111.59;;;5.81;58.63
19811;BME280;10065;49.632;8.346;2023-03-03T07:47:14;101115.63;;;5.86;58.76
19811;BME280;10065;49.632;8.346;2023-03-03T07:49:45;101125.84;;;5.91;58.76
19811;BME280;10065;49.632;8.346;2023-03-03T07:52:23;101128.63;;;6.02;58.50
19811;BME280;10065;49.632;8.346;2023-03-03T07:54:53;101134.63;;;6.04;58.33
19811;BME280;10065;49.632;8.346;2023-03-03T07:57:24;101141.81;;;6.15;58.27
19811;BME280;10065;49.632;8.346;2023-03-03T07:59:54;101138.09;;;6.17;57.96
19811;BME280;10065;49.632;8.346;2023-03-03T08:02:36;101143.69;;;6.25;58.06
19811;BME280;10065;49.632;8.346;2023-03-03T08:05:27;101155.41;;;6.34;57.85
19811;BME280;10065;49.632;8.346;2023-03-03T08:08:11;101165.44;;;6.41;57.59
19811;BME280;10065;49.632;8.346;2023-03-03T08:10:43;101161.00;;;6.55;56.83
19811;BME280;10065;49.632;8.346;2023-03-03T08:13:17;101161.00;;;6.29;57.63
19811;BME280;10065;49.632;8.346;2023-03-03T08:15:48;101167.97;;;6.30;57.73
19811;BME280;10065;49.632;8.346;2023-03-03T08:18:22;101168.56;;;6.34;57.47
19811;BME280;10065;49.632;8.346;2023-03-03T08:20:55;101163.94;;;6.37;57.29
19811;BME280;10065;49.632;8.346;2023-03-03T08:23:24;101166.25;;;6.29;57.73
19811;BME280;10065;49.632;8.346;2023-03-03T08:25:52;101170.34;;;6.33;57.79
19811;BME280;10065;49.632;8.346;2023-03-03T08:28:20;101165.31;;;6.56;57.50
19811;BME280;10065;49.632;8.346;2023-03-03T08:30:48;101175.53;;;6.60;57.06
19811;BME280;10065;49.632;8.346;2023-03-03T08:33:19;101173.53;;;6.64;57.14
19811;BME280;10065;49.632;8.346;2023-03-03T08:35:47;101169.34;;;6.74;56.88
19811;BME280;10065;49.632;8.346;2023-03-03T08:38:17;101177.03;;;6.64;57.27
19811;BME280;10065;49.632;8.346;2023-03-03T08:40:46;101177.88;;;6.65;57.36
19811;BME280;10065;49.632;8.346;2023-03-03T08:43:14;101173.97;;;6.83;57.19
19811;BME280;10065;49.632;8.346;2023-03-03T08:45:43;101172.31;;;7.18;56.42
19811;BME280;10065;49.632;8.346;2023-03-03T08:48:11;101178.69;;;7.40;55.80
19811;BME280;10065;49.632;8.346;2023-03-03T08:50:41;101183.84;;;7.65;55.13
19811;BME280;10065;49.632;8.346;2023-03-03T08:53:09;101184.91;;;8.10;53.83
19811;BME280;10065;49.632;8.346;2023-03-03T08:55:38;101192.09;;;8.32;52.90
19811;BME280;10065;49.632;8.346;2023-03-03T08:58:05;101184.69;;;8.48;52.34
19811;BME280;10065;49.632;8.346;2023-03-03T09:00:33;101188.81;;;8.75;51.85
19811;BME280;10065;49.632;8.346;2023-03-03T09:03:01;101174.13;;;9.37;50.31
19811;BME280;10065;49.632;8.346;2023-03-03T09:05:29;101182.34;;;9.98;48.65
19811;BME280;10065;49.632;8.346;2023-03-03T09:07:58;101175.72;;;10.97;46.80
19811;BME280;10065;49.632;8.346;2023-03-03T09:10:27;101177.50;;;12.15;44.19
19811;BME280;10065;49.632;8.346;2023-03-03T09:12:59;101178.94;;;12.75;42.11
19811;BME280;10065;49.632;8.346;2023-03-03T09:15:30;101182.31;;;13.41;40.63
19811;BME280;10065;49.632;8.346;2023-03-03T09:18:09;101174.81;;;14.51;38.74
19811;BME280;10065;49.632;8.346;2023-03-03T09:20:41;101174.44;;;15.90;36.50
19811;BME280;10065;49.632;8.346;2023-03-03T09:23:30;101175.91;;;15.93;35.65
19811;BME280;10065;49.632;8.346;2023-03-03T09:26:21;101175.75;;;16.10;35.63
19811;BME280;10065;49.632;8.346;2023-03-03T09:28:52;101181.44;;;16.72;34.55
19811;BME280;10065;49.632;8.346;2023-03-03T09:31:24;101185.78;;;16.73;34.25
19811;BME280;10065;49.632;8.346;2023-03-03T09:33:52;101178.72;;;15.75;35.44
19811;BME280;10065;49.632;8.346;2023-03-03T09:36:25;101188.47;;;15.00;36.94
19811;BME280;10065;49.632;8.346;2023-03-03T09:38:55;101182.22;;;14.57;37.86
19811;BME280;10065;49.632;8.346;2023-03-03T09:41:36;101185.53;;;14.34;38.59
19811;BME280;10065;49.632;8.346;2023-03-03T09:47:30;101188.22;;;14.16;38.83
19811;BME280;10065;49.632;8.346;2023-03-03T09:50:09;101195.03;;;14.36;38.38
19811;BME280;10065;49.632;8.346;2023-03-03T09:52:46;101188.97;;;14.69;37.98
19811;BME280;10065;49.632;8.346;2023-03-03T09:55:34;101193.94;;;15.74;35.97
19811;BME280;10065;49.632;8.346;2023-03-03T09:58:18;101188.41;;;17.37;33.39
19811;BME280;10065;49.632;8.346;2023-03-03T10:00:56;101183.44;;;18.48;31.78
19811;BME280;10065;49.632;8.346;2023-03-03T10:03:47;101184.59;;;19.56;29.79
19811;BME280;10065;49.632;8.346;2023-03-03T10:06:24;101193.06;;;20.10;29.46
19811;BME280;10065;49.632;8.346;2023-03-03T10:09:19;101186.75;;;20.74;28.26
19811;BME280;10065;49.632;8.346;2023-03-03T10:11:56;101188.94;;;21.19;27.96
19811;BME280;10065;49.632;8.346;2023-03-03T10:14:55;101194.81;;;22.17;26.74
19811;BME280;10065;49.632;8.346;2023-03-03T10:17:36;101191.09;;;22.83;25.90
19811;BME280;10065;49.632;8.346;2023-03-03T10:20:36;101196.13;;;23.38;24.89
19811;BME280;10065;49.632;8.346;2023-03-03T10:23:23;101194.97;;;21.95;26.38
19811;BME280;10065;49.632;8.346;2023-03-03T10:26:05;101197.06;;;20.63;28.00
19811;BME280;10065;49.632;8.346;2023-03-03T10:28:54;101181.16;;;21.51;27.33
19811;BME280;10065;49.632;8.346;2023-03-03T10:31:33;101173.63;;;22.27;26.02
19811;BME280;10065;49.632;8.346;2023-03-03T10:34:14;101183.72;;;23.17;25.27
19811;BME280;10065;49.632;8.346;2023-03-03T10:36:52;101184.22;;;23.90;24.41
19811;BME280;10065;49.632;8.346;2023-03-03T10:39:47;101191.84;;;23.17;25.17
19811;BME280;10065;49.632;8.346;2023-03-03T10:42:40;101194.94;;;23.27;24.85
19811;BME280;10065;49.632;8.346;2023-03-03T10:48:23;101183.63;;;25.60;22.51
19811;BME280;10065;49.632;8.346;2023-03-03T10:51:01;101187.13;;;25.79;22.21
19811;BME280;10065;49.632;8.346;2023-03-03T10:53:44;101184.63;;;25.77;22.08
19811;BME280;10065;49.632;8.346;2023-03-03T10:56:28;101191.53;;;23.89;23.46
19811;BME280;10065;49.632;8.346;2023-03-03T10:59:32;101192.59;;;24.13;23.71
19811;BME280;10065;49.632;8.346;2023-03-03T11:02:09;101193.00;;;25.09;22.74
19811;BME280;10065;49.632;8.346;2023-03-03T11:04:50;101189.16;;;23.99;23.79
19811;BME280;10065;49.632;8.346;2023-03-03T11:07:26;101194.00;;;22.36;25.45
19811;BME280;10065;49.632;8.346;2023-03-03T11:10:02;101194.22;;;20.72;27.00
19811;BME280;10065;49.632;8.346;2023-03-03T11:12:40;101184.44;;;19.43;28.97
19811;BME280;10065;49.632;8.346;2023-03-03T11:15:25;101196.69;;;18.72;29.63
19811;BME280;10065;49.632;8.346;2023-03-03T11:18:07;101189.47;;;18.35;30.35
19811;BME280;10065;49.632;8.346;2023-03-03T11:20:42;101182.31;;;19.38;29.18
19811;BME280;10065;49.632;8.346;2023-03-03T11:23:30;101192.16;;;20.46;28.13
19811;BME280;10065;49.632;8.346;2023-03-03T11:26:08;101188.88;;;20.85;27.46
19811;BME280;10065;49.632;8.346;2023-03-03T11:28:50;101191.34;;;20.80;27.47
19811;BME280;10065;49.632;8.346;2023-03-03T11:31:29;101186.50;;;20.69;27.73
19811;BME280;10065;49.632;8.346;2023-03-03T11:34:11;101179.84;;;20.15;28.09
19811;BME280;10065;49.632;8.346;2023-03-03T11:36:43;101183.38;;;19.95;28.35
19811;BME280;10065;49.632;8.346;2023-03-03T11:39:15;101172.94;;;19.85;28.79
19811;BME280;10065;49.632;8.346;2023-03-03T11:41:53;101182.25;;;20.53;28.34
19811;BME280;10065;49.632;8.346;2023-03-03T11:44:29;101173.78;;;21.79;26.63
19811;BME280;10065;49.632;8.346;2023-03-03T11:47:02;101161.31;;;22.90;25.35
19811;BME280;10065;49.632;8.346;2023-03-03T11:49:37;101158.59;;;24.17;23.95
19811;BME280;10065;49.632;8.346;2023-03-03T11:52:18;101163.53;;;25.13;22.84
19811;BME280;10065;49.632;8.346;2023-03-03T11:54:52;101155.69;;;24.87;22.89
19811;BME280;10065;49.632;8.346;2023-03-03T11:57:25;101151.19;;;24.06;23.72
19811;BME280;10065;49.632;8.346;2023-03-03T12:00:04;101156.94;;;23.53;24.36
19811;BME280;10065;49.632;8.346;2023-03-03T12:02:54;101155.69;;;22.98;24.74
19811;BME280;10065;49.632;8.346;2023-03-03T12:05:37;101151.78;;;22.68;25.18
19811;BME280;10065;49.632;8.346;2023-03-03T12:08:17;101151.84;;;22.15;25.64
19811;BME280;10065;49.632;8.346;2023-03-03T12:10:52;101150.34;;;22.26;25.46
19811;BME280;10065;49.632;8.346;2023-03-03T12:13:26;101145.59;;;22.41;25.43
19811;BME280;10065;49.632;8.346;2023-03-03T12:16:04;101141.38;;;22.71;25.23
19811;BME280;10065;49.632;8.346;2023-03-03T12:18:48;101141.22;;;22.46;24.96
19811;BME280;10065;49.632;8.346;2023-03-03T12:21:33;101142.31;;;20.63;26.61
19811;BME280;10065;49.632;8.346;2023-03-03T12:24:15;101137.09;;;19.63;28.45
19811;BME280;10065;49.632;8.346;2023-03-03T12:26:51;101137.31;;;18.82;29.81
19811;BME280;10065;49.632;8.346;2023-03-03T12:29:25;101133.97;;;18.94;29.40
19811;BME280;10065;49.632;8.346;2023-03-03T12:32:03;101134.56;;;20.25;28.38
19811;BME280;10065;49.632;8.346;2023-03-03T12:34:39;101132.72;;;20.88;27.18
19811;BME280;10065;49.632;8.346;2023-03-03T12:37:21;101122.25;;;21.13;26.89
19811;BME280;10065;49.632;8.346;2023-03-03T12:39:57;101118.06;;;21.58;26.29
19811;BME280;10065;49.632;8.346;2023-03-03T12:42:38;101109.09;;;20.28;27.51
19811;BME280;10065;49.632;8.346;2023-03-03T12:45:21;101112.84;;;18.76;29.50
19811;BME280;10065;49.632;8.346;2023-03-03T12:47:53;101117.41;;;18.91;29.51
19811;BME280;10065;49.632;8.346;2023-03-03T12:50:32;101119.28;;;19.83;27.97
19811;BME280;10065;49.632;8.346;2023-03-03T12:53:11;101120.63;;;19.73;28.34
19811;BME280;10065;49.632;8.346;2023-03-03T12:55:48;101115.06;;;19.96;28.24
19811;BME280;10065;49.632;8.346;2023-03-03T12:58:28;101103.44;;;20.44;27.26
19811;BME280;10065;49.632;8.346;2023-03-03T13:01:09;101111.31;;;20.18;26.59
19811;BME280;10065;49.632;8.346;2023-03-03T13:03:42;101098.84;;;19.68;28.29
19811;BME280;10065;49.632;8.346;2023-03-03T13:06:27;101097.25;;;19.52;28.61
19811;BME280;10065;49.632;8.346;2023-03-03T13:09:10;101085.41;;;19.68;28.77
19811;BME280;10065;49.632;8.346;2023-03-03T13:11:51;101089.63;;;19.77;28.49
19811;BME280;10065;49.632;8.346;2023-03-03T13:14:29;101095.97;;;19.48;28.56
19811;BME280;10065;49.632;8.346;2023-03-03T13:17:05;101084.22;;;18.98;29.17
19811;BME280;10065;49.632;8.346;2023-03-03T13:19:40;101088.09;;;18.52;30.13
19811;BME280;10065;49.632;8.346;2023-03-03T13:22:14;101086.94;;;18.02;29.97
19811;BME280;10065;49.632;8.346;2023-03-03T13:24:54;101087.91;;;17.63;30.23
19811;BME280;10065;49.632;8.346;2023-03-03T13:27:27;101080.59;;;17.49;30.86
19811;BME280;10065;49.632;8.346;2023-03-03T13:30:00;101083.13;;;17.20;31.43
19811;BME280;10065;49.632;8.346;2023-03-03T13:32:34;101078.66;;;16.73;31.47
19811;BME280;10065;49.632;8.346;2023-03-03T13:35:17;101090.28;;;16.33;32.30